createdAt,value
2017-07-01T00:00:45.540Z,41.43
2017-07-01T00:03:13.832Z,31.40
2017-07-01T00:05:41.402Z,37.10
2017-07-01T00:08:08.923Z,35.93
2017-07-01T00:10:36.432Z,37.37
2017-07-01T00:13:04.744Z,37.10
2017-07-01T00:15:32.263Z,41.37
2017-07-01T00:17:59.758Z,48.80
2017-07-01T00:20:27.256Z,42.50
2017-07-01T00:22:54.792Z,39.10
2017-07-01T00:25:22.312Z,38.43
2017-07-01T00:27:50.564Z,40.60
2017-07-01T00:30:18.820Z,41.00
2017-07-01T00:32:46.313Z,44.00
2017-07-01T00:35:13.811Z,45.77
2017-07-01T00:37:41.353Z,46.63
2017-07-01T00:40:09.632Z,51.80
2017-07-01T00:42:37.134Z,56.00
2017-07-01T00:45:04.779Z,46.97
2017-07-01T00:47:32.272Z,48.97
2017-07-01T00:49:59.757Z,56.53
2017-07-01T00:52:27.472Z,52.23
2017-07-01T00:54:55.014Z,52.90
2017-07-01T00:57:22.553Z,54.53
2017-07-01T00:59:50.096Z,56.70
2017-07-01T01:02:17.641Z,55.73
2017-07-01T01:04:45.188Z,52.87
2017-07-01T01:07:12.753Z,64.43
2017-07-01T01:09:40.491Z,58.83
2017-07-01T01:12:07.989Z,63.43
2017-07-01T01:14:36.259Z,63.70
2017-07-01T01:17:03.831Z,59.37
2017-07-01T01:19:31.368Z,65.47
2017-07-01T01:21:58.852Z,62.37
2017-07-01T01:24:26.556Z,75.50
2017-07-01T01:26:54.048Z,68.60
2017-07-01T01:29:21.532Z,67.47
2017-07-01T01:31:49.796Z,64.30
2017-07-01T01:34:17.284Z,70.30
2017-07-01T01:36:44.800Z,77.37
2017-07-01T01:39:12.348Z,85.00
2017-07-01T01:41:39.845Z,76.93
2017-07-01T01:44:08.139Z,74.13
2017-07-01T01:46:35.648Z,77.63
2017-07-01T01:49:03.916Z,74.50
2017-07-01T01:51:31.480Z,70.17
2017-07-01T01:53:58.964Z,64.30
2017-07-01T01:56:26.452Z,75.23
2017-07-01T01:58:54.738Z,74.03
2017-07-01T02:01:22.225Z,66.40
2017-07-01T02:03:49.810Z,62.40
2017-07-01T02:06:17.566Z,68.20
2017-07-01T02:08:45.996Z,55.93
2017-07-01T02:11:14.283Z,64.50
2017-07-01T02:13:41.850Z,65.90
2017-07-01T02:16:16.024Z,68.57
2017-07-01T02:18:43.674Z,60.63
2017-07-01T02:21:24.120Z,55.70
2017-07-01T02:23:51.660Z,60.67
2017-07-01T02:26:27.192Z,63.43
2017-07-01T02:28:55.688Z,59.97
2017-07-01T02:31:24.127Z,54.40
2017-07-01T02:33:52.395Z,62.70
2017-07-01T02:36:23.229Z,54.47
2017-07-01T02:38:50.740Z,55.23
2017-07-01T02:41:18.289Z,51.93
2017-07-01T02:43:45.832Z,52.37
2017-07-01T02:46:16.858Z,52.60
2017-07-01T02:49:04.289Z,48.67
2017-07-01T02:51:54.241Z,45.53
2017-07-01T02:54:37.446Z,53.97
2017-07-01T02:57:05.007Z,55.50
2017-07-01T02:59:40.252Z,51.73
2017-07-01T03:02:07.762Z,51.00
2017-07-01T03:04:35.508Z,50.63
2017-07-01T03:07:03.045Z,46.37
2017-07-01T03:09:30.652Z,53.50
2017-07-01T03:11:58.233Z,56.37
2017-07-01T03:14:25.777Z,52.70
2017-07-01T03:16:53.268Z,54.70
2017-07-01T03:19:20.765Z,57.00
2017-07-01T03:21:48.300Z,55.87
2017-07-01T03:24:15.804Z,54.13
2017-07-01T03:26:43.415Z,56.40
2017-07-01T03:29:12.701Z,60.00
2017-07-01T03:31:40.211Z,57.97
2017-07-01T03:34:07.736Z,63.70
2017-07-01T03:36:38.173Z,64.60
2017-07-01T03:39:31.416Z,67.73
2017-07-01T03:42:25.581Z,63.90
2017-07-01T03:44:58.652Z,74.53
2017-07-01T03:47:29.988Z,68.43
2017-07-01T03:49:58.351Z,56.93
2017-07-01T03:52:25.839Z,68.90
2017-07-01T03:54:53.428Z,64.07
2017-07-01T03:57:20.976Z,65.50
2017-07-01T03:59:49.240Z,68.13
2017-07-01T04:02:16.780Z,63.93
2017-07-01T04:04:50.016Z,65.07
2017-07-01T04:07:17.592Z,70.60
2017-07-01T04:09:45.151Z,70.97
2017-07-01T04:12:12.714Z,66.60
2017-07-01T04:14:40.245Z,73.43
2017-07-01T04:17:08.020Z,70.20
2017-07-01T04:20:00.401Z,68.80
2017-07-01T04:22:28.689Z,71.20
2017-07-01T04:24:56.309Z,69.50
2017-07-01T04:27:23.856Z,78.10
2017-07-01T04:29:51.398Z,71.27
2017-07-01T04:32:18.940Z,78.03
2017-07-01T04:34:46.424Z,71.30
2017-07-01T04:37:13.932Z,69.23
2017-07-01T04:39:41.483Z,63.23
2017-07-01T04:42:29.700Z,59.30
2017-07-01T04:44:58.872Z,63.60
2017-07-01T04:47:26.360Z,57.40
2017-07-01T04:49:53.891Z,53.90
2017-07-01T04:52:23.060Z,60.13
2017-07-01T04:54:53.064Z,58.13
2017-07-01T04:57:37.084Z,47.10
2017-07-01T05:00:16.208Z,47.10
2017-07-01T05:02:43.700Z,53.37
2017-07-01T05:05:11.996Z,55.33
2017-07-01T05:08:01.236Z,56.33
2017-07-01T05:10:49.448Z,45.07
2017-07-01T05:13:17.892Z,46.70
2017-07-01T05:16:01.112Z,49.50
2017-07-01T05:18:29.396Z,48.77
2017-07-01T05:20:56.880Z,49.70
2017-07-01T05:23:41.893Z,42.53
2017-07-01T05:26:09.546Z,45.33
2017-07-01T05:28:42.926Z,48.87
2017-07-01T05:31:23.209Z,44.27
2017-07-01T05:33:53.669Z,44.60
2017-07-01T05:36:36.894Z,45.20
2017-07-01T05:39:10.222Z,36.63
2017-07-01T05:41:37.741Z,40.93
2017-07-01T05:44:06.005Z,41.17
2017-07-01T05:46:34.365Z,35.50
2017-07-01T05:49:09.618Z,33.23
2017-07-01T05:51:44.461Z,34.70
2017-07-01T05:54:15.489Z,27.23
2017-07-01T05:56:43.157Z,22.77
2017-07-01T05:59:10.679Z,24.33
2017-07-01T06:01:38.347Z,21.73
2017-07-01T06:04:05.861Z,19.60
2017-07-01T06:06:33.516Z,18.30
2017-07-01T06:09:01.011Z,24.03
2017-07-01T06:11:28.541Z,19.23
2017-07-01T06:13:56.173Z,19.10
2017-07-01T06:16:41.052Z,18.67
2017-07-01T06:19:11.019Z,16.87
2017-07-01T06:21:39.441Z,20.00
2017-07-01T06:24:12.841Z,18.30
2017-07-01T06:26:55.936Z,18.60
2017-07-01T06:29:46.876Z,24.43
2017-07-01T06:32:21.128Z,21.53
2017-07-01T06:35:06.394Z,22.33
2017-07-01T06:37:59.528Z,19.50
2017-07-01T06:40:48.576Z,16.93
2017-07-01T06:43:16.085Z,19.03
2017-07-01T06:45:44.377Z,18.40
2017-07-01T06:48:13.871Z,18.40
2017-07-01T06:50:41.422Z,17.57
2017-07-01T06:53:08.981Z,21.00
2017-07-01T06:55:36.814Z,21.03
2017-07-01T06:58:04.333Z,18.83
2017-07-01T07:00:31.894Z,17.60
2017-07-01T07:02:59.421Z,19.37
2017-07-01T07:05:26.915Z,19.20
2017-07-01T07:07:54.404Z,22.03
2017-07-01T07:10:22.672Z,16.80
2017-07-01T07:12:50.156Z,20.87
2017-07-01T07:15:17.769Z,18.20
2017-07-01T07:17:45.256Z,20.10
2017-07-01T07:20:12.881Z,18.63
2017-07-01T07:22:40.404Z,15.70
2017-07-01T07:25:07.896Z,14.07
2017-07-01T07:27:35.404Z,14.47
2017-07-01T07:30:02.920Z,18.00
2017-07-01T07:32:30.464Z,13.10
2017-07-01T07:34:58.008Z,13.83
2017-07-01T07:37:25.528Z,14.13
2017-07-01T07:39:53.785Z,14.87
2017-07-01T07:42:22.040Z,11.93
2017-07-01T07:44:49.691Z,11.30
2017-07-01T07:47:17.980Z,11.37
2017-07-01T07:49:45.466Z,10.77
2017-07-01T07:52:13.094Z,11.50
2017-07-01T07:54:40.621Z,9.53
2017-07-01T07:57:08.132Z,9.77
2017-07-01T07:59:35.672Z,9.53
2017-07-01T08:02:03.932Z,9.80
2017-07-01T08:04:32.182Z,8.63
2017-07-01T08:06:59.757Z,8.60
2017-07-01T08:09:27.296Z,8.87
2017-07-01T08:11:54.848Z,9.20
2017-07-01T08:14:22.360Z,7.80
2017-07-01T08:16:50.747Z,8.10
2017-07-01T08:19:18.292Z,7.87
2017-07-01T08:21:45.840Z,8.83
2017-07-01T08:24:13.337Z,9.03
2017-07-01T08:26:40.820Z,8.87
2017-07-01T08:29:09.092Z,8.37
2017-07-01T08:31:36.605Z,8.50
2017-07-01T08:34:04.901Z,8.87
2017-07-01T08:36:32.431Z,6.80
2017-07-01T08:38:59.976Z,7.00
2017-07-01T08:41:28.225Z,7.33
2017-07-01T08:43:55.805Z,6.73
2017-07-01T08:46:23.525Z,7.47
2017-07-01T08:48:51.000Z,6.63
2017-07-01T08:51:18.509Z,12.23
2017-07-01T08:53:46.016Z,8.40
2017-07-01T08:56:13.492Z,8.20
2017-07-01T08:58:40.988Z,9.93
2017-07-01T09:01:08.693Z,9.00
2017-07-01T09:03:36.252Z,10.50
2017-07-01T09:06:03.749Z,10.57
2017-07-01T09:08:32.231Z,8.57
2017-07-01T09:10:59.780Z,9.00
2017-07-01T09:13:27.323Z,9.27
2017-07-01T09:15:54.980Z,10.73
2017-07-01T09:18:22.460Z,11.07
2017-07-01T09:20:49.936Z,10.40
2017-07-01T09:23:18.196Z,8.87
2017-07-01T09:25:46.448Z,10.57
2017-07-01T09:28:14.841Z,9.67
2017-07-01T09:30:42.403Z,10.17
2017-07-01T09:33:10.251Z,10.80
2017-07-01T09:35:37.817Z,11.93
2017-07-01T09:38:05.336Z,8.27
2017-07-01T09:40:32.861Z,7.93
2017-07-01T09:43:00.354Z,5.90
2017-07-01T09:45:27.949Z,5.67
2017-07-01T09:47:55.492Z,5.47
2017-07-01T09:50:22.972Z,6.43
2017-07-01T09:52:50.456Z,5.43
2017-07-01T09:55:18.744Z,5.57
2017-07-01T09:57:46.287Z,6.03
2017-07-01T10:00:13.784Z,10.30
2017-07-01T10:02:41.292Z,5.13
2017-07-01T10:05:08.777Z,4.43
2017-07-01T10:07:37.072Z,4.93
2017-07-01T10:10:04.597Z,3.70
2017-07-01T10:12:32.841Z,4.07
2017-07-01T10:15:00.416Z,4.57
2017-07-01T10:17:27.888Z,3.47
2017-07-01T10:19:55.400Z,3.90
2017-07-01T10:22:22.908Z,3.23
2017-07-01T10:24:50.389Z,3.23
2017-07-01T10:27:17.864Z,4.23
2017-07-01T10:29:45.472Z,4.03
2017-07-01T10:32:13.033Z,3.83
2017-07-01T10:34:40.521Z,5.20
2017-07-01T10:37:08.021Z,4.07
2017-07-01T10:39:35.524Z,4.13
2017-07-01T10:42:04.241Z,5.23
2017-07-01T10:44:31.788Z,6.00
2017-07-01T10:46:59.268Z,5.03
2017-07-01T10:49:26.791Z,5.10
2017-07-01T10:51:54.268Z,4.97
2017-07-01T10:54:22.521Z,8.20
2017-07-01T10:56:50.803Z,4.93
2017-07-01T10:59:18.286Z,5.03
2017-07-01T11:01:45.787Z,8.50
2017-07-01T11:04:13.556Z,5.10
2017-07-01T11:06:41.049Z,6.50
2017-07-01T11:09:09.356Z,6.93
2017-07-01T11:11:36.900Z,6.13
2017-07-01T11:14:04.390Z,5.77
2017-07-01T11:16:31.973Z,6.57
2017-07-01T11:18:59.513Z,7.20
2017-07-01T11:21:27.060Z,5.47
2017-07-01T11:23:54.606Z,6.47
2017-07-01T11:26:22.348Z,5.63
2017-07-01T11:28:49.820Z,5.90
2017-07-01T11:31:17.292Z,5.60
2017-07-01T11:33:44.785Z,5.47
2017-07-01T11:36:12.316Z,5.43
2017-07-01T11:38:39.891Z,6.40
2017-07-01T11:41:07.393Z,5.60
2017-07-01T11:43:36.501Z,5.07
2017-07-01T11:46:04.080Z,5.57
2017-07-01T11:48:31.676Z,6.57
2017-07-01T11:50:59.150Z,5.00
2017-07-01T11:53:28.321Z,5.60
2017-07-01T11:55:55.832Z,5.73
2017-07-01T11:58:24.124Z,5.23
2017-07-01T12:00:51.600Z,6.00
2017-07-01T12:03:19.329Z,6.83
2017-07-01T12:05:46.807Z,6.07
2017-07-01T12:08:15.104Z,5.90
2017-07-01T12:10:44.003Z,5.33
2017-07-01T12:13:11.498Z,6.40
2017-07-01T12:15:39.756Z,6.23
2017-07-01T12:18:08.025Z,5.63
2017-07-01T12:20:35.592Z,5.80
2017-07-01T12:23:03.247Z,5.87
2017-07-01T12:25:30.727Z,6.77
2017-07-01T12:27:58.218Z,6.33
2017-07-01T12:30:25.696Z,6.30
2017-07-01T12:32:53.292Z,6.83
2017-07-01T12:35:20.836Z,6.70
2017-07-01T12:37:48.393Z,6.93
2017-07-01T12:40:15.920Z,6.50
2017-07-01T12:42:43.416Z,8.03
2017-07-01T12:45:10.911Z,6.50
2017-07-01T12:47:38.424Z,6.73
2017-07-01T12:50:06.696Z,7.13
2017-07-01T12:52:34.997Z,9.37
2017-07-01T12:55:02.717Z,9.40
2017-07-01T12:57:30.268Z,8.77
2017-07-01T12:59:57.804Z,7.37
2017-07-01T13:02:25.360Z,10.40
2017-07-01T13:04:52.839Z,6.50
2017-07-01T13:07:20.317Z,6.37
2017-07-01T13:09:48.579Z,5.70
2017-07-01T13:12:16.856Z,11.20
2017-07-01T13:14:45.609Z,6.00
2017-07-01T13:17:13.193Z,5.80
2017-07-01T13:19:40.731Z,5.70
2017-07-01T13:22:08.285Z,5.47
2017-07-01T13:24:35.792Z,5.33
2017-07-01T13:27:03.378Z,4.43
2017-07-01T13:29:31.101Z,4.50
2017-07-01T13:31:58.576Z,4.20
2017-07-01T13:34:26.081Z,4.70
2017-07-01T13:36:53.728Z,4.73
2017-07-01T13:39:21.268Z,4.90
2017-07-01T13:41:48.745Z,5.23
2017-07-01T13:44:16.247Z,5.63
2017-07-01T13:46:43.732Z,7.10
2017-07-01T13:49:11.218Z,8.97
2017-07-01T13:51:39.477Z,5.63
2017-07-01T13:54:07.001Z,5.20
2017-07-01T13:56:34.648Z,10.70
2017-07-01T13:59:02.124Z,5.50
2017-07-01T14:01:29.773Z,5.33
2017-07-01T14:03:57.320Z,5.63
2017-07-01T14:06:24.793Z,5.00
2017-07-01T14:08:52.276Z,7.53
2017-07-01T14:11:20.522Z,5.03
2017-07-01T14:13:48.100Z,6.10
2017-07-01T14:16:15.580Z,5.93
2017-07-01T14:18:43.118Z,5.43
2017-07-01T14:21:10.624Z,5.77
2017-07-01T14:23:39.367Z,5.83
2017-07-01T14:26:07.075Z,6.30
2017-07-01T14:28:34.605Z,6.20
2017-07-01T14:31:02.121Z,5.00
2017-07-01T14:33:30.400Z,7.03
2017-07-01T14:35:57.872Z,5.40
2017-07-01T14:38:25.384Z,5.10
2017-07-01T14:40:52.865Z,7.63
2017-07-01T14:43:20.568Z,5.30
2017-07-01T14:45:48.114Z,4.10
2017-07-01T14:48:15.651Z,6.47
2017-07-01T14:50:43.199Z,8.53
2017-07-01T14:53:10.693Z,4.20
2017-07-01T14:55:38.186Z,5.20
2017-07-01T14:58:06.151Z,5.80
2017-07-01T15:00:33.687Z,4.37
2017-07-01T15:03:01.171Z,3.80
2017-07-01T15:05:28.870Z,3.80
2017-07-01T15:07:56.349Z,3.70
2017-07-01T15:10:23.860Z,3.80
2017-07-01T15:12:51.609Z,4.03
2017-07-01T15:15:19.088Z,3.80
2017-07-01T15:17:46.561Z,3.80
2017-07-01T15:20:14.096Z,6.17
2017-07-01T15:22:41.604Z,5.00
2017-07-01T15:25:09.125Z,4.40
2017-07-01T15:27:36.828Z,6.63
2017-07-01T15:30:04.354Z,5.00
2017-07-01T15:32:31.857Z,4.80
2017-07-01T15:34:59.404Z,4.53
2017-07-01T15:37:26.880Z,4.70
2017-07-01T15:39:54.477Z,5.20
2017-07-01T15:42:22.024Z,4.40
2017-07-01T15:44:49.504Z,5.17
2017-07-01T15:47:17.007Z,4.93
2017-07-01T15:49:44.513Z,6.33
2017-07-01T15:52:12.001Z,7.47
2017-07-01T15:54:39.497Z,5.83
2017-07-01T15:57:07.184Z,5.27
2017-07-01T15:59:34.691Z,5.30
2017-07-01T16:02:02.267Z,4.50
2017-07-01T16:04:29.782Z,3.93
2017-07-01T16:06:57.261Z,4.77
2017-07-01T16:09:24.777Z,4.40
2017-07-01T16:11:53.056Z,3.90
2017-07-01T16:14:20.556Z,7.90
2017-07-01T16:16:48.251Z,5.17
2017-07-01T16:19:15.742Z,3.67
2017-07-01T16:21:43.245Z,4.17
2017-07-01T16:24:10.778Z,10.50
2017-07-01T16:26:38.259Z,4.30
2017-07-01T16:29:05.793Z,5.10
2017-07-01T16:31:33.528Z,4.77
2017-07-01T16:34:01.053Z,4.93
2017-07-01T16:36:28.593Z,5.10
2017-07-01T16:38:56.236Z,5.97
2017-07-01T16:41:23.716Z,6.10
2017-07-01T16:43:51.224Z,6.23
2017-07-01T16:46:18.738Z,5.57
2017-07-01T16:48:46.308Z,4.40
2017-07-01T16:51:13.818Z,6.57
2017-07-01T16:53:41.373Z,6.30
2017-07-01T16:56:09.626Z,5.33
2017-07-01T16:58:37.182Z,7.60
2017-07-01T17:01:05.677Z,4.17
2017-07-01T17:03:33.247Z,9.07
2017-07-01T17:06:00.736Z,7.10
2017-07-01T17:08:29.017Z,6.73
2017-07-01T17:10:56.496Z,6.37
2017-07-01T17:13:24.004Z,8.60
2017-07-01T17:15:51.492Z,5.20
2017-07-01T17:18:18.968Z,6.57
2017-07-01T17:20:47.344Z,6.83
2017-07-01T17:23:14.887Z,10.00
2017-07-01T17:25:42.382Z,8.97
2017-07-01T17:28:09.912Z,9.37
2017-07-01T17:30:37.405Z,14.00
2017-07-01T17:33:05.684Z,29.40
2017-07-01T17:35:33.191Z,10.60
2017-07-01T17:38:00.769Z,9.60
2017-07-01T17:40:28.289Z,8.00
2017-07-01T17:42:55.769Z,7.20
2017-07-01T17:45:23.254Z,9.00
2017-07-01T17:47:50.739Z,8.03
2017-07-01T17:50:18.223Z,15.17
2017-07-01T17:52:45.812Z,12.77
2017-07-01T17:55:14.081Z,7.70
2017-07-01T17:57:41.834Z,7.33
2017-07-01T18:00:09.345Z,11.43
2017-07-01T18:02:36.945Z,8.03
2017-07-01T18:05:04.455Z,11.40
2017-07-01T18:07:31.948Z,10.23
2017-07-01T18:09:59.547Z,15.63
2017-07-01T18:12:27.019Z,19.90
2017-07-01T18:14:54.536Z,11.00
2017-07-01T18:17:22.072Z,12.83
2017-07-01T18:19:49.572Z,11.27
2017-07-01T18:22:17.060Z,10.13
2017-07-01T18:24:44.567Z,16.53
2017-07-01T18:27:12.049Z,10.50
2017-07-01T18:29:40.401Z,9.63
2017-07-01T18:32:07.940Z,13.40
2017-07-01T18:34:35.508Z,7.37
2017-07-01T18:37:03.000Z,10.93
2017-07-01T18:39:30.584Z,9.63
2017-07-01T18:41:58.069Z,13.30
2017-07-01T18:44:25.552Z,13.33
2017-07-01T18:46:53.813Z,13.00
2017-07-01T18:49:22.062Z,14.50
2017-07-01T18:51:50.553Z,12.27
2017-07-01T18:54:18.037Z,18.30
2017-07-01T18:56:45.532Z,13.70
2017-07-01T18:59:13.045Z,16.10
2017-07-01T19:01:40.564Z,10.90
2017-07-01T19:04:08.083Z,14.80
2017-07-01T19:06:35.815Z,12.70
2017-07-01T19:09:03.296Z,11.27
2017-07-01T19:11:30.799Z,11.47
2017-07-01T19:13:58.348Z,11.63
2017-07-01T19:16:25.885Z,15.63
2017-07-01T19:18:53.428Z,13.63
2017-07-01T19:21:20.908Z,16.13
2017-07-01T19:23:48.408Z,12.30
2017-07-01T19:26:16.880Z,14.83
2017-07-01T19:28:44.423Z,13.53
2017-07-01T19:31:12.077Z,16.80
2017-07-01T19:33:39.825Z,11.70
2017-07-01T19:36:07.337Z,15.60
2017-07-01T19:38:35.619Z,11.10
2017-07-01T19:41:03.448Z,10.97
2017-07-01T19:43:31.013Z,19.40
2017-07-01T19:45:58.596Z,17.33
2017-07-01T19:48:26.109Z,16.50
2017-07-01T19:50:53.600Z,15.03
2017-07-01T19:53:21.094Z,12.20
2017-07-01T19:55:48.624Z,14.87
2017-07-01T19:58:16.104Z,16.47
2017-07-01T20:00:43.597Z,18.40
2017-07-01T20:03:11.982Z,17.30
2017-07-01T20:05:39.483Z,21.70
2017-07-01T20:08:07.067Z,17.53
2017-07-01T20:10:34.628Z,19.47
2017-07-01T20:13:02.175Z,13.00
2017-07-01T20:15:29.672Z,14.80
2017-07-01T20:17:58.044Z,16.70
2017-07-01T20:20:26.316Z,25.07
2017-07-01T20:22:53.856Z,19.90
2017-07-01T20:25:21.503Z,15.27
2017-07-01T20:27:49.060Z,16.63
2017-07-01T20:30:16.542Z,17.93
2017-07-01T20:32:44.133Z,18.30
2017-07-01T20:35:11.619Z,15.97
2017-07-01T20:37:39.124Z,19.17
2017-07-01T20:40:06.663Z,16.57
2017-07-01T20:42:34.234Z,12.23
2017-07-01T20:45:01.945Z,14.20
2017-07-01T20:47:30.203Z,14.03
2017-07-01T20:49:57.692Z,19.30
2017-07-01T20:52:25.213Z,17.60
2017-07-01T20:54:52.697Z,15.23
2017-07-01T20:57:20.180Z,21.97
2017-07-01T20:59:47.668Z,14.60
2017-07-01T21:02:15.152Z,18.37
2017-07-01T21:04:43.437Z,15.90
2017-07-01T21:07:10.944Z,17.90
2017-07-01T21:09:39.213Z,20.93
2017-07-01T21:12:07.698Z,20.97
2017-07-01T21:14:35.425Z,17.63
2017-07-01T21:17:03.676Z,26.93
2017-07-01T21:19:32.168Z,24.23
2017-07-01T21:21:59.711Z,20.60
2017-07-01T21:24:27.265Z,19.03
2017-07-01T21:26:55.007Z,26.87
2017-07-01T21:29:22.553Z,23.00
2017-07-01T21:31:50.028Z,17.50
2017-07-01T21:34:17.520Z,25.00
2017-07-01T21:36:45.796Z,25.97
2017-07-01T21:39:13.312Z,15.83
2017-07-01T21:41:41.569Z,28.77
2017-07-01T21:44:09.084Z,27.37
2017-07-01T21:46:36.633Z,21.17
2017-07-01T21:49:04.168Z,26.07
2017-07-01T21:51:31.876Z,25.67
2017-07-01T21:53:59.428Z,25.13
2017-07-01T21:56:26.908Z,15.97
2017-07-01T21:58:54.424Z,18.53
2017-07-01T22:01:22.220Z,26.03
2017-07-01T22:03:49.700Z,25.43
2017-07-01T22:06:17.201Z,20.60
2017-07-01T22:08:44.689Z,25.43
2017-07-01T22:11:12.180Z,25.10
2017-07-01T22:13:40.488Z,29.87
2017-07-01T22:16:08.051Z,20.10
2017-07-01T22:18:35.620Z,27.20
2017-07-01T22:21:03.213Z,23.87
2017-07-01T22:23:30.760Z,29.83
2017-07-01T22:25:58.304Z,26.53
2017-07-01T22:28:25.844Z,26.67
2017-07-01T22:30:53.345Z,33.47
2017-07-01T22:33:20.932Z,27.13
2017-07-01T22:35:48.676Z,23.90
2017-07-01T22:38:16.159Z,25.70
2017-07-01T22:40:43.660Z,37.33
2017-07-01T22:43:11.220Z,28.20
2017-07-01T22:45:38.725Z,33.90
2017-07-01T22:48:07.028Z,33.67
2017-07-01T22:50:34.586Z,28.53
2017-07-01T22:53:02.107Z,28.70
2017-07-01T22:55:29.644Z,33.70
2017-07-01T22:57:57.301Z,23.87
2017-07-01T23:00:24.832Z,26.80
2017-07-01T23:02:52.320Z,30.07
2017-07-01T23:05:19.832Z,29.10
2017-07-01T23:07:47.360Z,21.63
2017-07-01T23:10:14.844Z,33.10
2017-07-01T23:12:42.514Z,23.90
2017-07-01T23:15:10.018Z,34.30
2017-07-01T23:17:37.548Z,34.13
2017-07-01T23:20:05.137Z,31.37
2017-07-01T23:22:33.445Z,29.97
2017-07-01T23:25:00.940Z,27.77
2017-07-01T23:27:28.429Z,26.83
2017-07-01T23:29:56.186Z,31.13
2017-07-01T23:32:23.669Z,23.13
2017-07-01T23:34:51.160Z,27.77
2017-07-01T23:37:18.704Z,27.73
2017-07-01T23:39:46.192Z,21.97
2017-07-01T23:42:13.691Z,25.13
2017-07-01T23:44:41.469Z,37.27
2017-07-01T23:47:08.969Z,24.93
2017-07-01T23:49:36.486Z,27.57
2017-07-01T23:52:04.001Z,26.93
2017-07-01T23:54:31.508Z,31.63
2017-07-01T23:56:58.999Z,28.30
2017-07-01T23:59:26.585Z,37.20
